Csl Argosy — C6UZ9 — position and weather

sailwx.info

Track history (hours):
 
Tides and Currents Weather Stations Pressure Air Temp Water Temp Dewpoint Dewpoint Depression Visibility Wind Speed Wind Dir Waves Ship Positions

Csl Argosy

Last reported at 2015-Apr-01 05:14 UTC. Time now 2015-Apr-01 08:01 UTC.
Position N 57°58' E 005°59'.

Length 244 m; draft 9.5 m.

Type: Cargo ship. MMSI: 308299000.

Date/timePositionNaut miles runAvg speedWind from/ knotsBaromVisibWave heightAir tempDewpointWater temp
2015-Apr-01 05:14N 57°58' E 005°59'710.4
2015-Apr-01 04:33N 58°03' E 005°49'1110.4
2015-Apr-01 03:27N 58°10' E 005°33'10 9.8
2015-Apr-01 02:26N 58°17' E 005°18'  
2015-Mar-27 20:32N 58°46' E 004°37'19 9.7
2015-Mar-27 18:33N 58°33' E 005°03'9 9.2
2015-Mar-27 17:33N 58°26' E 005°16'10 9.8
2015-Mar-27 16:31N 58°19' E 005°29'1010.0
2015-Mar-27 15:32N 58°12' E 005°43'10 9.9
2015-Mar-27 14:33N 58°06' E 005°57'14 9.8
2015-Mar-27 13:09N 57°57' E 006°17'129 9.5
2015-Mar-26 23:33N 57°50' E 010°19'1010.0
2015-Mar-26 22:33N 57°50' E 010°37'9 8.8
2015-Mar-26 21:33N 57°47' E 010°53'10 9.5
2015-Mar-26 20:33N 57°39' E 011°04'10 9.7
2015-Mar-26 19:33N 57°33' E 011°17'9 9.0
2015-Mar-26 18:33N 57°26' E 011°28'9 9.2
2015-Mar-26 17:33N 57°17' E 011°34'9 9.3
2015-Mar-26 16:34N 57°08' E 011°39'9 9.3
2015-Mar-26 15:33N 56°59' E 011°45'9 9.1
2015-Mar-26 14:33N 56°51' E 011°51'8 8.3
2015-Mar-26 13:33N 56°42' E 011°51'9 9.0
2015-Mar-26 12:33N 56°35' E 011°43'118 9.1
2015-Mar-25 23:33N 54°38' E 011°05'1111.2
2015-Mar-25 22:33N 54°33' E 011°22'1110.7
2015-Mar-25 21:33N 54°28' E 011°39'1010.1
2015-Mar-25 20:33N 54°24' E 011°54'9 9.2
2015-Mar-25 19:33N 54°16' E 012°03'7 7.2
2015-Mar-25 18:33N 54°10' E 012°06'1 0.5
2015-Mar-25 17:23N 54°09' E 012°07'0 0.0
2015-Mar-25 16:32N 54°09' E 012°07'0 0.0
2015-Mar-25 15:32N 54°09' E 012°07'0 0.0
2015-Mar-25 14:23N 54°09' E 012°07'0 0.0
2015-Mar-25 13:14N 54°09' E 012°07'0 0.0
2015-Mar-25 12:23N 54°09' E 012°07'0 0.0
2015-Mar-25 11:29N 54°09' E 012°07'0 0.0
2015-Mar-25 10:20N 54°09' E 012°07'0 0.0
2015-Mar-25 09:32N 54°09' E 012°07'0 0.0
2015-Mar-25 08:32N 54°09' E 012°07'0 0.0
2015-Mar-25 07:32N 54°09' E 012°07'0 0.0
2015-Mar-25 06:26N 54°09' E 012°07'0 0.0
2015-Mar-25 05:32N 54°09' E 012°07'0 0.0
2015-Mar-25 04:14N 54°09' E 012°07'0 0.0
2015-Mar-25 03:26N 54°09' E 012°07'0 0.0
2015-Mar-25 02:32N 54°09' E 012°07'0 0.0
2015-Mar-25 01:32N 54°09' E 012°07'0 0.0
2015-Mar-25 00:32N 54°09' E 012°07'0 0.0
2015-Mar-24 23:26N 54°09' E 012°07'0 0.0
2015-Mar-24 22:23N 54°09' E 012°07'0 0.0
2015-Mar-24 20:32N 54°09' E 012°07'0 0.0
2015-Mar-24 19:29N 54°09' E 012°07'0 0.0
2015-Mar-24 18:32N 54°09' E 012°07'0 0.0
2015-Mar-24 17:29N 54°09' E 012°07'0 0.0
2015-Mar-24 16:11N 54°09' E 012°07'0 0.0
2015-Mar-24 15:23N 54°09' E 012°07'0 0.0
2015-Mar-24 14:26N 54°09' E 012°07'0 0.0
2015-Mar-24 13:32N 54°09' E 012°07'0 0.0
2015-Mar-24 12:32N 54°09' E 012°07'0 0.0
2015-Mar-24 11:32N 54°09' E 012°07'0 0.0
2015-Mar-24 10:29N 54°09' E 012°07'0 0.0
2015-Mar-24 09:14N 54°09' E 012°07'0 0.0
2015-Mar-24 08:20N 54°09' E 012°07'1 0.7
2015-Mar-24 07:23N 54°10' E 012°06'5 5.6
2015-Mar-24 06:33N 54°14' E 012°04'4 3.4
2015-Mar-24 05:31N 54°17' E 011°59'0 0.0
2015-Mar-24 04:28N 54°17' E 011°59'0 0.0
2015-Mar-24 03:31N 54°17' E 011°59'0 0.0
2015-Mar-24 02:33N 54°17' E 011°59'0 0.0
2015-Mar-24 01:33N 54°17' E 011°59'0 0.0
2015-Mar-24 00:33N 54°17' E 011°59'0 0.0
2015-Mar-23 23:33N 54°17' E 011°59'0 0.0
2015-Mar-23 22:33N 54°17' E 011°59'0 0.0
2015-Mar-23 21:33N 54°17' E 011°59'0 0.0
2015-Mar-23 20:33N 54°17' E 011°59'0 0.0
2015-Mar-23 19:33N 54°17' E 011°59'0 0.1
2015-Mar-23 18:33N 54°17' E 011°59'0 0.0
2015-Mar-23 17:33N 54°17' E 011°59'0 0.0
2015-Mar-23 16:33N 54°17' E 011°59'0 0.0
2015-Mar-23 15:33N 54°17' E 011°59'0 0.0
2015-Mar-23 14:33N 54°17' E 011°59'0 0.0
2015-Mar-23 13:33N 54°17' E 011°59'0 0.0
2015-Mar-23 12:33N 54°17' E 011°59'0 0.0
2015-Mar-23 11:33N 54°17' E 011°59'0 0.0
2015-Mar-23 10:33N 54°17' E 011°59'0 0.0
2015-Mar-23 09:33N 54°17' E 011°59'0 0.0
2015-Mar-23 08:33N 54°17' E 011°59'0 0.0
2015-Mar-23 07:33N 54°17' E 011°59'0 0.0
2015-Mar-23 06:33N 54°17' E 011°59'0 0.1
2015-Mar-23 05:33N 54°17' E 011°59'0 0.2
2015-Mar-23 04:33N 54°17' E 011°60'3 2.9
2015-Mar-23 03:33N 54°19' E 011°57'8 7.6
2015-Mar-23 02:33N 54°24' E 011°47'10 9.6
2015-Mar-23 01:33N 54°29' E 011°33'9 9.4
2015-Mar-23 00:33N 54°33' E 011°18'9 9.3
2015-Mar-22 23:33N 54°35' E 011°03'9 9.2
2015-Mar-22 22:33N 54°40' E 010°48'9 7.8
2015-Mar-22 21:27N 54°48' E 010°50'114 7.9
2015-Mar-22 07:04N 56°38' E 011°44'5 9.1
2015-Mar-22 06:33N 56°42' E 011°48'8 8.0
2015-Mar-22 05:33N 56°50' E 011°49'  
Track history (hours):
 
Tides and Currents Weather Stations Pressure Air Temp Water Temp Dewpoint Dewpoint Depression Visibility Wind Speed Wind Dir Waves Ship Positions

Csl Argosy

Last reported at 2015-Apr-01 05:14 UTC. Time now 2015-Apr-01 08:02 UTC.
Position N 57°58' E 005°59'.

Length 244 m; draft 9.5 m.

Type: Cargo ship. MMSI: 308299000.

Date/timePositionNaut miles runAvg speedWind from/ knotsBaromVisibWave heightAir tempDewpointWater temp
2015-Apr-01 05:14N 57°58' E 005°59'710.4
2015-Apr-01 04:33N 58°03' E 005°49'1110.4
2015-Apr-01 03:27N 58°10' E 005°33'10 9.8
2015-Apr-01 02:26N 58°17' E 005°18'  
2015-Mar-27 20:32N 58°46' E 004°37'19 9.7
2015-Mar-27 18:33N 58°33' E 005°03'9 9.2
2015-Mar-27 17:33N 58°26' E 005°16'10 9.8
2015-Mar-27 16:31N 58°19' E 005°29'1010.0
2015-Mar-27 15:32N 58°12' E 005°43'10 9.9
2015-Mar-27 14:33N 58°06' E 005°57'14 9.8
2015-Mar-27 13:09N 57°57' E 006°17'129 9.5
2015-Mar-26 23:33N 57°50' E 010°19'1010.0
2015-Mar-26 22:33N 57°50' E 010°37'9 8.8
2015-Mar-26 21:33N 57°47' E 010°53'10 9.5
2015-Mar-26 20:33N 57°39' E 011°04'10 9.7
2015-Mar-26 19:33N 57°33' E 011°17'9 9.0
2015-Mar-26 18:33N 57°26' E 011°28'9 9.2
2015-Mar-26 17:33N 57°17' E 011°34'9 9.3
2015-Mar-26 16:34N 57°08' E 011°39'9 9.3
2015-Mar-26 15:33N 56°59' E 011°45'9 9.1
2015-Mar-26 14:33N 56°51' E 011°51'8 8.3
2015-Mar-26 13:33N 56°42' E 011°51'9 9.0
2015-Mar-26 12:33N 56°35' E 011°43'118 9.1
2015-Mar-25 23:33N 54°38' E 011°05'1111.2
2015-Mar-25 22:33N 54°33' E 011°22'1110.7
2015-Mar-25 21:33N 54°28' E 011°39'1010.1
2015-Mar-25 20:33N 54°24' E 011°54'9 9.2
2015-Mar-25 19:33N 54°16' E 012°03'7 7.2
2015-Mar-25 18:33N 54°10' E 012°06'1 0.5
2015-Mar-25 17:23N 54°09' E 012°07'0 0.0
2015-Mar-25 16:32N 54°09' E 012°07'0 0.0
2015-Mar-25 15:32N 54°09' E 012°07'0 0.0
2015-Mar-25 14:23N 54°09' E 012°07'0 0.0
2015-Mar-25 13:14N 54°09' E 012°07'0 0.0
2015-Mar-25 12:23N 54°09' E 012°07'0 0.0
2015-Mar-25 11:29N 54°09' E 012°07'0 0.0
2015-Mar-25 10:20N 54°09' E 012°07'0 0.0
2015-Mar-25 09:32N 54°09' E 012°07'0 0.0
2015-Mar-25 08:32N 54°09' E 012°07'0 0.0
2015-Mar-25 07:32N 54°09' E 012°07'0 0.0
2015-Mar-25 06:26N 54°09' E 012°07'0 0.0
2015-Mar-25 05:32N 54°09' E 012°07'0 0.0
2015-Mar-25 04:14N 54°09' E 012°07'0 0.0
2015-Mar-25 03:26N 54°09' E 012°07'0 0.0
2015-Mar-25 02:32N 54°09' E 012°07'0 0.0
2015-Mar-25 01:32N 54°09' E 012°07'0 0.0
2015-Mar-25 00:32N 54°09' E 012°07'0 0.0
2015-Mar-24 23:26N 54°09' E 012°07'0 0.0
2015-Mar-24 22:23N 54°09' E 012°07'0 0.0
2015-Mar-24 20:32N 54°09' E 012°07'0 0.0
2015-Mar-24 19:29N 54°09' E 012°07'0 0.0
2015-Mar-24 18:32N 54°09' E 012°07'0 0.0
2015-Mar-24 17:29N 54°09' E 012°07'0 0.0
2015-Mar-24 16:11N 54°09' E 012°07'0 0.0
2015-Mar-24 15:23N 54°09' E 012°07'0 0.0
2015-Mar-24 14:26N 54°09' E 012°07'0 0.0
2015-Mar-24 13:32N 54°09' E 012°07'0 0.0
2015-Mar-24 12:32N 54°09' E 012°07'0 0.0
2015-Mar-24 11:32N 54°09' E 012°07'0 0.0
2015-Mar-24 10:29N 54°09' E 012°07'0 0.0
2015-Mar-24 09:14N 54°09' E 012°07'0 0.0
2015-Mar-24 08:20N 54°09' E 012°07'1 0.7
2015-Mar-24 07:23N 54°10' E 012°06'5 5.6
2015-Mar-24 06:33N 54°14' E 012°04'4 3.4
2015-Mar-24 05:31N 54°17' E 011°59'0 0.0
2015-Mar-24 04:28N 54°17' E 011°59'0 0.0
2015-Mar-24 03:31N 54°17' E 011°59'0 0.0
2015-Mar-24 02:33N 54°17' E 011°59'0 0.0
2015-Mar-24 01:33N 54°17' E 011°59'0 0.0
2015-Mar-24 00:33N 54°17' E 011°59'0 0.0
2015-Mar-23 23:33N 54°17' E 011°59'0 0.0
2015-Mar-23 22:33N 54°17' E 011°59'0 0.0
2015-Mar-23 21:33N 54°17' E 011°59'0 0.0
2015-Mar-23 20:33N 54°17' E 011°59'0 0.0
2015-Mar-23 19:33N 54°17' E 011°59'0 0.1
2015-Mar-23 18:33N 54°17' E 011°59'0 0.0
2015-Mar-23 17:33N 54°17' E 011°59'0 0.0
2015-Mar-23 16:33N 54°17' E 011°59'0 0.0
2015-Mar-23 15:33N 54°17' E 011°59'0 0.0
2015-Mar-23 14:33N 54°17' E 011°59'0 0.0
2015-Mar-23 13:33N 54°17' E 011°59'0 0.0
2015-Mar-23 12:33N 54°17' E 011°59'0 0.0
2015-Mar-23 11:33N 54°17' E 011°59'0 0.0
2015-Mar-23 10:33N 54°17' E 011°59'0 0.0
2015-Mar-23 09:33N 54°17' E 011°59'0 0.0
2015-Mar-23 08:33N 54°17' E 011°59'0 0.0
2015-Mar-23 07:33N 54°17' E 011°59'0 0.0
2015-Mar-23 06:33N 54°17' E 011°59'0 0.1
2015-Mar-23 05:33N 54°17' E 011°59'0 0.2
2015-Mar-23 04:33N 54°17' E 011°60'3 2.9
2015-Mar-23 03:33N 54°19' E 011°57'8 7.6
2015-Mar-23 02:33N 54°24' E 011°47'10 9.6
2015-Mar-23 01:33N 54°29' E 011°33'9 9.4
2015-Mar-23 00:33N 54°33' E 011°18'9 9.3
2015-Mar-22 23:33N 54°35' E 011°03'9 9.2
2015-Mar-22 22:33N 54°40' E 010°48'9 7.8
2015-Mar-22 21:27N 54°48' E 010°50'114 7.9
2015-Mar-22 07:04N 56°38' E 011°44'5 9.1
2015-Mar-22 06:33N 56°42' E 011°48'8 8.0
2015-Mar-22 05:33N 56°50' E 011°49'  

Dump ship's entire track history